This is the latest recevied weather packets stored in our database for station/object DG4MND-4. If no packets are shown the sender has not sent any weather packets the latest 1 day(s).
| Time | Temp. | Humidity | Pressure | Rain* | Wind** | Luminosity | Snow |
|---|---|---|---|---|---|---|---|
| 1778010055 | 12.22° C | 88% | 1009.1 hPa | 0.51 mm | 0.89 m/s, 240° | - | - |
| 1778009452 | 12.78° C | 89% | 1008.8 hPa | 0.25 mm | 0.89 m/s, 212° | - | - |
| 1778008849 | 13.33° C | 93% | 1008.4 hPa | 0 mm | 0.45 m/s, 161° | - | - |
| 1778008245 | 13.33° C | 94% | 1008.2 hPa | 0 mm | 0.45 m/s, 156° | - | - |
| 1778007642 | 13.33° C | 91% | 1007.9 hPa | 0 mm | 0.45 m/s, 208° | - | - |
| 1778007041 | 13.33° C | 88% | 1007.8 hPa | 0 mm | 0.45 m/s, 177° | - | - |
| 1778006435 | 13.33° C | 85% | 1007.5 hPa | 0 mm | 0 m/s | - | - |
| 1778005832 | 13.89° C | 86% | 1007.2 hPa | 0 mm | 0.89 m/s, 7° | - | - |
| 1778004625 | 13.89° C | 85% | 1007.1 hPa | 0 mm | 0 m/s | - | - |
| 1778003421 | 14.44° C | 84% | 1007.2 hPa | 0 mm | 0 m/s | - | - |
| 1778002272 | 15° C | 81% | 1007.1 hPa | 0 mm | 0 m/s | - | - |
| 1778001068 | 15° C | 77% | 1006.4 hPa | 0.25 mm | 0 m/s | - | - |
| 1778000461 | 15° C | 76% | 1006.5 hPa | 0.25 mm | 0.45 m/s, 338° | - | - |
| 1777999857 | 15.56° C | 76% | 1006.4 hPa | 0.25 mm | 0.45 m/s, 338° | - | - |
| 1777999257 | 15.56° C | 79% | 1006.3 hPa | 0.25 mm | 0.45 m/s, 343° | - | - |
| 1777998653 | 15.56° C | 82% | 1006.5 hPa | 0.25 mm | 0 m/s | - | - |
| 1777998047 | 15.56° C | 83% | 1006.5 hPa | 0.25 mm | 0 m/s | - | - |
| 1777997443 | 16.11° C | 75% | 1006.8 hPa | 0 mm | 0.45 m/s, 315° | - | - |
| 1777996843 | 16.67° C | 73% | 1006.9 hPa | 0 mm | 0 m/s | - | - |
| 1777996239 | 16.67° C | 68% | 1006.9 hPa | 0 mm | 0.45 m/s, 342° | - | - |
| 1777995636 | 17.22° C | 65% | 1007 hPa | 0 mm | 0.45 m/s, 299° | - | - |
| 1777995033 | 17.22° C | 64% | 1007.1 hPa | 0 mm | 0.45 m/s, 336° | - | - |
| 1777994426 | 16.67° C | 64% | 1007 hPa | 0 mm | 0.45 m/s, 324° | - | - |
| 1777993823 | 17.22° C | 63% | 1006.8 hPa | 0 mm | 0.45 m/s, 335° | - | - |
| 1777993219 | 17.22° C | 64% | 1006.7 hPa | 0 mm | 0.89 m/s, 315° | - | - |
* Rain latest hour (hover to see other rain measurements)
** Current wind speed in m/s (hover to see current wind gust speed)